createdAt,value
2023-12-14T00:00:11.691Z,100199.22
2023-12-14T00:02:44.634Z,100218.06
2023-12-14T00:05:14.709Z,100217.53
2023-12-14T00:07:44.549Z,100220.06
2023-12-14T00:10:14.552Z,100227.25
2023-12-14T00:12:44.385Z,100209.88
2023-12-14T00:15:14.230Z,100243.47
2023-12-14T00:17:46.717Z,100244.38
2023-12-14T00:20:16.806Z,100249.34
2023-12-14T00:22:46.617Z,100247.88
2023-12-14T00:25:16.570Z,100261.59
2023-12-14T00:27:46.386Z,100259.28
2023-12-14T00:30:17.033Z,100274.03
2023-12-14T00:32:49.518Z,100279.09
2023-12-14T00:35:19.358Z,100288.16
2023-12-14T00:37:49.170Z,100243.06
2023-12-14T00:40:19.144Z,100294.38
2023-12-14T00:42:49.019Z,100292.34
2023-12-14T00:45:18.853Z,100310.59
2023-12-14T00:47:51.256Z,100286.91
2023-12-14T00:50:21.212Z,100284.31
2023-12-14T00:52:51.103Z,100312.91
2023-12-14T00:55:20.937Z,100305.50
2023-12-14T00:57:50.744Z,100296.78
2023-12-14T01:00:21.504Z,100321.88
2023-12-14T01:02:53.919Z,100319.66
2023-12-14T01:05:23.868Z,100307.56
2023-12-14T01:07:53.801Z,100332.56
2023-12-14T01:10:23.715Z,100303.25
2023-12-14T01:12:53.634Z,100343.72
2023-12-14T01:15:23.464Z,100351.94
2023-12-14T01:17:55.900Z,100352.91
2023-12-14T01:20:25.956Z,100361.19
2023-12-14T01:22:55.840Z,100350.53
2023-12-14T01:25:25.666Z,100369.56
2023-12-14T01:27:55.456Z,100386.09
2023-12-14T01:30:25.378Z,100375.84
2023-12-14T01:32:57.845Z,100366.44
2023-12-14T01:35:27.667Z,100390.28
2023-12-14T01:37:57.525Z,100395.53
2023-12-14T01:40:27.338Z,100398.91
2023-12-14T01:42:57.159Z,100396.31
2023-12-14T01:45:26.958Z,100298.31
2023-12-14T01:47:59.442Z,100400.38
2023-12-14T01:50:29.364Z,100401.34
2023-12-14T01:52:59.324Z,100370.06
2023-12-14T01:55:29.638Z,100412.72
2023-12-14T01:57:59.429Z,100393.22
2023-12-14T02:00:38.595Z,100426.06
2023-12-14T02:03:10.996Z,100357.16
2023-12-14T02:05:41.098Z,100438.22
2023-12-14T02:08:11.147Z,100440.50
2023-12-14T02:10:41.015Z,100450.94
2023-12-14T02:13:10.901Z,100397.41
2023-12-14T02:15:40.807Z,100456.06
2023-12-14T02:18:13.393Z,100458.94
2023-12-14T02:20:43.237Z,100414.81
2023-12-14T02:23:15.691Z,100461.56
2023-12-14T02:25:45.602Z,100446.81
2023-12-14T02:28:15.538Z,100480.25
2023-12-14T02:30:45.517Z,100443.47
2023-12-14T02:33:15.531Z,100471.13
2023-12-14T02:35:45.333Z,100434.09
2023-12-14T02:38:17.831Z,100441.88
2023-12-14T02:40:47.720Z,100476.00
2023-12-14T02:43:17.537Z,100459.56
2023-12-14T02:45:47.400Z,100418.72
2023-12-14T02:48:17.291Z,100452.09
2023-12-14T02:50:47.225Z,100466.91
2023-12-14T02:53:22.443Z,100493.03
2023-12-14T02:55:52.532Z,100495.81
2023-12-14T02:58:22.777Z,100489.19
2023-12-14T03:00:52.831Z,100469.31
2023-12-14T03:03:22.633Z,100498.75
2023-12-14T03:05:52.500Z,100490.56
2023-12-14T03:08:24.970Z,100489.63
2023-12-14T03:10:54.802Z,100492.16
2023-12-14T03:13:24.626Z,100505.41
2023-12-14T03:15:54.408Z,100501.47
2023-12-14T03:18:24.346Z,100510.53
2023-12-14T03:20:54.209Z,100502.22
2023-12-14T03:23:26.707Z,100486.41
2023-12-14T03:25:56.532Z,100480.03
2023-12-14T03:28:26.368Z,100437.31
2023-12-14T03:30:56.317Z,100523.06
2023-12-14T03:33:26.251Z,100476.28
2023-12-14T03:35:56.063Z,100526.94
2023-12-14T03:38:28.436Z,100535.38
2023-12-14T03:40:58.307Z,100547.75
2023-12-14T03:43:28.157Z,100555.16
2023-12-14T03:45:57.961Z,100563.69
2023-12-14T03:48:27.841Z,100527.00
2023-12-14T03:50:57.729Z,100557.31
2023-12-14T03:53:30.091Z,100570.25
2023-12-14T03:56:01.622Z,100579.31
2023-12-14T03:58:31.567Z,100540.69
2023-12-14T04:01:01.428Z,100580.75
2023-12-14T04:03:31.402Z,100572.31
2023-12-14T04:06:01.295Z,100552.38
2023-12-14T04:08:33.745Z,100574.78
2023-12-14T04:11:03.567Z,100544.63
2023-12-14T04:13:33.418Z,100584.53
2023-12-14T04:16:03.846Z,100588.78
2023-12-14T04:18:33.798Z,100589.31
2023-12-14T04:21:03.742Z,100580.56
2023-12-14T04:23:36.210Z,100599.50
2023-12-14T04:26:06.316Z,100606.28
2023-12-14T04:28:36.181Z,100593.44
2023-12-14T04:31:06.180Z,100551.91
2023-12-14T04:33:36.060Z,100585.84
2023-12-14T04:36:06.031Z,100598.31
2023-12-14T04:38:38.449Z,100594.13
2023-12-14T04:41:08.548Z,100600.84
2023-12-14T04:43:38.428Z,100626.00
2023-12-14T04:46:09.339Z,100645.25
2023-12-14T04:48:40.312Z,100575.00
2023-12-14T04:51:15.477Z,100644.25
2023-12-14T04:53:47.851Z,100657.34
2023-12-14T04:56:17.793Z,100646.38
2023-12-14T04:58:47.655Z,100653.66
2023-12-14T05:01:17.822Z,100622.88
2023-12-14T05:03:47.668Z,100626.94
2023-12-14T05:06:17.632Z,100663.66
2023-12-14T05:08:50.014Z,100665.66
2023-12-14T05:11:19.895Z,100627.34
2023-12-14T05:13:49.720Z,100677.25
2023-12-14T05:16:19.591Z,100684.69
2023-12-14T05:18:50.190Z,100691.06
2023-12-14T05:21:21.362Z,100695.88
2023-12-14T05:23:54.757Z,100659.97
2023-12-14T05:26:24.569Z,100705.59
2023-12-14T05:28:55.254Z,100710.72
2023-12-14T05:31:25.191Z,100720.94
2023-12-14T05:33:55.212Z,100702.06
2023-12-14T05:36:25.057Z,100715.91
2023-12-14T05:38:57.435Z,100698.69
2023-12-14T05:41:27.217Z,100713.28
2023-12-14T05:43:57.111Z,100737.53
2023-12-14T05:46:27.495Z,100734.25
2023-12-14T05:48:57.312Z,100712.78
2023-12-14T05:51:31.443Z,100712.66
2023-12-14T05:54:03.939Z,100749.09
2023-12-14T05:56:34.328Z,100752.22
2023-12-14T05:59:04.954Z,100746.97
2023-12-14T06:01:34.886Z,100747.88
2023-12-14T06:04:04.854Z,100735.06
2023-12-14T06:06:34.717Z,100728.75
2023-12-14T06:09:08.571Z,100755.66
2023-12-14T06:11:38.451Z,100759.84
2023-12-14T06:14:08.334Z,100738.44
2023-12-14T06:16:38.204Z,100767.50
2023-12-14T06:19:08.266Z,100755.84
2023-12-14T06:21:38.146Z,100732.56
2023-12-14T06:24:11.116Z,100773.44
2023-12-14T06:26:44.963Z,100772.28
2023-12-14T06:29:15.950Z,100765.28
2023-12-14T06:31:45.899Z,100791.06
2023-12-14T06:34:15.809Z,100793.50
2023-12-14T06:36:46.821Z,100797.56
2023-12-14T06:39:20.791Z,100803.09
2023-12-14T06:41:50.714Z,100814.00
2023-12-14T06:44:20.540Z,100783.09
2023-12-14T06:46:50.453Z,100809.59
2023-12-14T06:49:20.255Z,100746.88
2023-12-14T06:51:50.070Z,100770.38
2023-12-14T06:54:22.595Z,100833.84
2023-12-14T06:56:52.379Z,100835.56
2023-12-14T06:59:22.222Z,100819.13
2023-12-14T07:01:53.300Z,100855.81
2023-12-14T07:04:23.371Z,100855.94
2023-12-14T07:06:57.710Z,100833.63
2023-12-14T07:09:30.461Z,100755.38
2023-12-14T07:12:02.610Z,100849.69
2023-12-14T07:14:32.461Z,100860.69
2023-12-14T07:17:02.271Z,100867.41
2023-12-14T07:19:33.305Z,100807.59
2023-12-14T07:22:03.323Z,100882.09
2023-12-14T07:24:40.957Z,100888.03
2023-12-14T07:27:18.894Z,100897.09
2023-12-14T07:29:48.662Z,100897.72
2023-12-14T07:32:19.501Z,100891.47
2023-12-14T07:34:49.361Z,100925.00
2023-12-14T07:37:19.396Z,100921.31
2023-12-14T07:39:51.847Z,100942.91
2023-12-14T07:42:22.469Z,100922.81
2023-12-14T07:44:52.247Z,100919.22
2023-12-14T07:47:22.385Z,100956.22
2023-12-14T07:49:52.227Z,100952.75
2023-12-14T07:52:22.031Z,100959.69
2023-12-14T07:54:54.485Z,100964.88
2023-12-14T07:57:25.032Z,100958.28
2023-12-14T07:59:54.836Z,100954.59
2023-12-14T08:02:24.699Z,100965.00
2023-12-14T08:04:54.576Z,100956.78
2023-12-14T08:07:24.391Z,100979.19
2023-12-14T08:09:56.736Z,100988.47
2023-12-14T08:12:27.069Z,100984.34
2023-12-14T08:14:56.892Z,100997.38
2023-12-14T08:17:27.895Z,101000.91
2023-12-14T08:19:57.811Z,100935.81
2023-12-14T08:22:27.619Z,100992.00
2023-12-14T08:25:00.000Z,101026.66
2023-12-14T08:27:29.978Z,101025.41
2023-12-14T08:29:59.799Z,101006.09
2023-12-14T08:32:29.607Z,100917.44
2023-12-14T08:34:59.451Z,101044.63
2023-12-14T08:37:29.219Z,101049.00
2023-12-14T08:40:01.749Z,101005.44
2023-12-14T08:42:32.237Z,101023.03
2023-12-14T08:45:02.125Z,101043.56
2023-12-14T08:47:31.937Z,101052.69
2023-12-14T08:50:01.808Z,101057.16
2023-12-14T08:52:31.610Z,101005.13
2023-12-14T08:55:04.022Z,101058.91
2023-12-14T08:57:33.879Z,101050.81
2023-12-14T09:00:05.255Z,101044.00
2023-12-14T09:02:35.386Z,101033.06
2023-12-14T09:05:05.995Z,101076.88
2023-12-14T09:07:35.892Z,101077.44
2023-12-14T09:10:09.603Z,101081.91
2023-12-14T09:12:39.685Z,101027.03
2023-12-14T09:15:10.703Z,101050.84
2023-12-14T09:17:40.833Z,101089.47
2023-12-14T09:20:13.223Z,101100.53
2023-12-14T09:22:43.192Z,101094.75
2023-12-14T09:25:16.723Z,101100.09
2023-12-14T09:27:46.780Z,101109.53
2023-12-14T09:30:18.748Z,101003.88
2023-12-14T09:32:48.887Z,101109.69
2023-12-14T09:35:19.432Z,101089.47
2023-12-14T09:37:49.289Z,101109.22
2023-12-14T09:40:23.429Z,101121.69
2023-12-14T09:42:53.381Z,101110.56
2023-12-14T09:45:27.857Z,101047.31
2023-12-14T09:47:58.186Z,101128.41
2023-12-14T09:50:28.288Z,101132.41
2023-12-14T09:52:58.128Z,101119.91
2023-12-14T09:55:32.506Z,101139.06
2023-12-14T09:58:03.716Z,101107.81
2023-12-14T10:00:37.825Z,101150.50
2023-12-14T10:03:27.548Z,101147.84
2023-12-14T10:05:58.654Z,101162.38
2023-12-14T10:08:30.046Z,101144.28
2023-12-14T10:11:02.712Z,101174.56
2023-12-14T10:13:41.390Z,101103.94
2023-12-14T10:16:11.538Z,101182.22
2023-12-14T10:18:41.567Z,101176.94
2023-12-14T10:21:11.562Z,101148.25
2023-12-14T10:23:41.348Z,101194.97
2023-12-14T10:26:13.838Z,101191.72
2023-12-14T10:28:44.052Z,101162.75
2023-12-14T10:31:14.397Z,101194.53
2023-12-14T10:33:44.479Z,101188.84
2023-12-14T10:36:14.834Z,101193.47
2023-12-14T10:38:48.070Z,101170.34
2023-12-14T10:41:21.664Z,101211.22
2023-12-14T10:44:03.267Z,101210.91
2023-12-14T10:46:42.146Z,101204.84
2023-12-14T10:49:13.746Z,101199.97
2023-12-14T10:51:45.827Z,101219.53
2023-12-14T10:54:19.624Z,101218.94
2023-12-14T10:56:52.071Z,101214.81
2023-12-14T10:59:21.852Z,101219.22
2023-12-14T11:01:56.009Z,101072.94
2023-12-14T11:04:26.086Z,101220.97
2023-12-14T11:06:57.406Z,101223.72
2023-12-14T11:09:28.433Z,101225.75
2023-12-14T11:12:05.392Z,101226.84
2023-12-14T11:14:35.219Z,101209.25
2023-12-14T11:17:10.403Z,101200.88
2023-12-14T11:19:40.621Z,101202.75
2023-12-14T11:22:26.840Z,101212.50
2023-12-14T11:24:57.798Z,101233.84
2023-12-14T11:27:35.585Z,101242.53
2023-12-14T11:30:06.735Z,101232.84
2023-12-14T11:32:36.818Z,101203.09
2023-12-14T11:35:09.626Z,101241.66
2023-12-14T11:37:40.063Z,101262.44
2023-12-14T11:40:12.577Z,101247.16
2023-12-14T11:42:47.483Z,101260.41
2023-12-14T11:45:18.712Z,101269.59
2023-12-14T11:47:48.681Z,101272.06
2023-12-14T11:50:19.611Z,101263.50
2023-12-14T11:52:49.677Z,101187.25
2023-12-14T11:55:19.696Z,101273.94
2023-12-14T11:57:53.985Z,101279.13
2023-12-14T12:00:28.482Z,101221.69
2023-12-14T12:03:11.413Z,101275.16
2023-12-14T12:05:42.630Z,101272.13
2023-12-14T12:08:13.614Z,101261.47
2023-12-14T12:10:46.049Z,101277.25
2023-12-14T12:13:20.154Z,101260.19
2023-12-14T12:15:51.015Z,101288.34
2023-12-14T12:18:21.255Z,101253.38
2023-12-14T12:20:51.070Z,101297.69
2023-12-14T12:23:20.952Z,101293.94
2023-12-14T12:25:56.077Z,101229.06
2023-12-14T12:28:28.487Z,101300.94
2023-12-14T12:30:58.826Z,101296.38
2023-12-14T12:33:28.729Z,101262.31
2023-12-14T12:35:58.579Z,101301.16
2023-12-14T12:38:28.397Z,101306.53
2023-12-14T12:41:01.152Z,101280.59
2023-12-14T12:43:33.573Z,101303.97
2023-12-14T12:46:03.694Z,101296.53
2023-12-14T12:48:33.922Z,101221.69
2023-12-14T12:51:03.845Z,101304.56
2023-12-14T12:53:34.550Z,101274.06
2023-12-14T12:56:04.368Z,101314.53
2023-12-14T12:58:36.754Z,101320.44
2023-12-14T13:01:06.618Z,101315.56
2023-12-14T13:03:36.418Z,101293.78
2023-12-14T13:06:06.560Z,101306.22
2023-12-14T13:08:36.443Z,101326.22
2023-12-14T13:11:06.512Z,101330.28
2023-12-14T13:13:38.935Z,101213.56
2023-12-14T13:16:09.147Z,101288.06
2023-12-14T13:18:39.031Z,101272.47
2023-12-14T13:21:09.170Z,101330.56
2023-12-14T13:23:39.010Z,101333.94
2023-12-14T13:26:09.385Z,101289.72
2023-12-14T13:28:41.901Z,101327.22
2023-12-14T13:31:11.843Z,101348.22
2023-12-14T13:33:41.750Z,101344.09
2023-12-14T13:36:12.634Z,101355.47
2023-12-14T13:38:42.631Z,101351.84
2023-12-14T13:41:13.062Z,101335.03
2023-12-14T13:43:47.572Z,101149.69
2023-12-14T13:46:20.296Z,101346.63
2023-12-14T13:48:54.337Z,101324.63
2023-12-14T13:51:24.228Z,101306.28
2023-12-14T13:53:54.017Z,101376.78
2023-12-14T13:56:23.917Z,101369.53
2023-12-14T13:58:56.533Z,101395.53
2023-12-14T14:01:26.877Z,101381.47
2023-12-14T14:03:56.917Z,101390.81
2023-12-14T14:06:27.059Z,101414.22
2023-12-14T14:08:57.009Z,101412.53
2023-12-14T14:11:26.871Z,101347.97
2023-12-14T14:13:59.666Z,101385.31
2023-12-14T14:16:29.485Z,101419.91
2023-12-14T14:19:00.072Z,101427.72
2023-12-14T14:21:30.266Z,101436.44
2023-12-14T14:24:00.084Z,101410.50
2023-12-14T14:26:29.976Z,101406.66
2023-12-14T14:29:03.415Z,101449.97
2023-12-14T14:31:34.229Z,101382.50
2023-12-14T14:34:04.514Z,101461.44
2023-12-14T14:36:34.367Z,101446.41
2023-12-14T14:39:06.017Z,101470.16
2023-12-14T14:41:35.902Z,101481.97
2023-12-14T14:44:08.544Z,101470.91
2023-12-14T14:46:38.393Z,101460.78
2023-12-14T14:49:09.249Z,101476.03
2023-12-14T14:51:39.288Z,101462.59
2023-12-14T14:54:09.205Z,101511.44
2023-12-14T14:56:39.010Z,101492.19
2023-12-14T14:59:12.454Z,101503.28
2023-12-14T15:01:42.328Z,101474.81
2023-12-14T15:04:12.291Z,101465.91
2023-12-14T15:06:42.119Z,101482.53
2023-12-14T15:09:12.468Z,101546.03
2023-12-14T15:11:43.387Z,101496.94
2023-12-14T15:14:15.837Z,101540.34
2023-12-14T15:16:45.772Z,101540.47
2023-12-14T15:19:15.690Z,101543.56
2023-12-14T15:21:45.489Z,101517.34
2023-12-14T15:24:15.420Z,101494.50
2023-12-14T15:26:45.359Z,101534.94
2023-12-14T15:29:17.878Z,101515.66
2023-12-14T15:31:47.706Z,101538.91
2023-12-14T15:34:19.788Z,101523.81
2023-12-14T15:36:49.713Z,101519.97
2023-12-14T15:39:19.568Z,101496.06
2023-12-14T15:41:49.426Z,101538.34
2023-12-14T15:44:22.354Z,101468.19
2023-12-14T15:46:52.230Z,101541.75
2023-12-14T15:49:22.118Z,101565.09
2023-12-14T15:51:51.929Z,101565.00
2023-12-14T15:54:21.745Z,101530.66
2023-12-14T15:56:51.540Z,101551.84
2023-12-14T15:59:23.985Z,101583.31
2023-12-14T16:01:53.869Z,101575.09
2023-12-14T16:04:23.806Z,101596.78
2023-12-14T16:06:53.644Z,101564.94
2023-12-14T16:09:23.488Z,101583.78
2023-12-14T16:11:53.342Z,101598.59
2023-12-14T16:14:25.792Z,101604.28
2023-12-14T16:16:55.700Z,101604.75
2023-12-14T16:19:25.514Z,101610.59
2023-12-14T16:21:55.326Z,101597.44
2023-12-14T16:24:26.198Z,101606.00
2023-12-14T16:26:59.119Z,101620.66
2023-12-14T16:29:33.937Z,101609.53
2023-12-14T16:32:03.777Z,101567.09
2023-12-14T16:34:34.164Z,101583.56
2023-12-14T16:37:04.755Z,101617.72
2023-12-14T16:39:34.584Z,101630.22
2023-12-14T16:42:04.952Z,101644.00
2023-12-14T16:44:38.679Z,101673.56
2023-12-14T16:47:10.845Z,101670.72
2023-12-14T16:49:41.686Z,101670.78
2023-12-14T16:52:11.863Z,101668.88
2023-12-14T16:54:43.565Z,101656.94
2023-12-14T16:57:13.360Z,101685.53
2023-12-14T16:59:45.863Z,101694.50
2023-12-14T17:02:15.803Z,101700.75
2023-12-14T17:04:45.655Z,101589.00
2023-12-14T17:07:15.745Z,101698.66
2023-12-14T17:09:45.585Z,101712.06
2023-12-14T17:12:15.373Z,101698.09
2023-12-14T17:14:47.782Z,101580.66
2023-12-14T17:17:17.597Z,101707.06
2023-12-14T17:19:47.446Z,101705.94
2023-12-14T17:22:17.231Z,101705.78
2023-12-14T17:24:47.009Z,101691.72
2023-12-14T17:27:16.894Z,101693.75
2023-12-14T17:29:49.252Z,101665.50
2023-12-14T17:32:19.069Z,101703.88
2023-12-14T17:34:48.961Z,101734.03
2023-12-14T17:37:18.864Z,101635.94
2023-12-14T17:39:48.764Z,101695.78
2023-12-14T17:42:20.103Z,101732.28
2023-12-14T17:44:53.038Z,101712.78
2023-12-14T17:47:22.891Z,101735.25
2023-12-14T17:49:52.754Z,101757.16
2023-12-14T17:52:22.753Z,101726.94
2023-12-14T17:54:53.574Z,101753.66
2023-12-14T17:57:23.357Z,101756.97
2023-12-14T17:59:56.018Z,101720.56
2023-12-14T18:02:25.968Z,101718.41
2023-12-14T18:04:55.855Z,101774.59
2023-12-14T18:07:25.647Z,101773.56
2023-12-14T18:09:55.435Z,101777.84
2023-12-14T18:12:25.220Z,101761.19
2023-12-14T18:14:57.613Z,101788.34
2023-12-14T18:17:27.427Z,101786.06
2023-12-14T18:19:57.872Z,101781.59
2023-12-14T18:22:27.711Z,101796.88
2023-12-14T18:24:57.613Z,101699.97
2023-12-14T18:27:27.726Z,101791.66
2023-12-14T18:30:00.431Z,101795.38
2023-12-14T18:32:32.188Z,101772.06
2023-12-14T18:35:02.071Z,101807.16
2023-12-14T18:37:31.980Z,101814.06
2023-12-14T18:40:01.749Z,101820.03
2023-12-14T18:42:31.548Z,101817.50
2023-12-14T18:45:04.526Z,101826.22
2023-12-14T18:47:34.890Z,101730.34
2023-12-14T18:50:06.545Z,101818.78
2023-12-14T18:52:36.404Z,101830.94
2023-12-14T18:55:07.037Z,101822.72
2023-12-14T18:57:37.168Z,101840.19
2023-12-14T19:00:11.403Z,101850.69
2023-12-14T19:02:41.592Z,101808.97
2023-12-14T19:05:12.331Z,101839.81
2023-12-14T19:07:42.210Z,101829.34
2023-12-14T19:10:14.741Z,101865.09
2023-12-14T19:12:44.537Z,101851.34
2023-12-14T19:15:17.192Z,101868.34
2023-12-14T19:17:47.213Z,101873.47
2023-12-14T19:20:17.726Z,101872.34
2023-12-14T19:22:47.635Z,101809.94
2023-12-14T19:25:17.559Z,101802.09
2023-12-14T19:27:53.597Z,101846.38
2023-12-14T19:30:26.218Z,101888.25
2023-12-14T19:32:56.094Z,101885.47
2023-12-14T19:35:26.144Z,101895.59
2023-12-14T19:37:56.152Z,101891.75
2023-12-14T19:40:26.540Z,101830.56
2023-12-14T19:43:09.906Z,101901.38
2023-12-14T19:45:42.928Z,101810.00
2023-12-14T19:48:12.943Z,101842.91
2023-12-14T19:50:45.002Z,101902.84
2023-12-14T19:53:14.944Z,101852.00
2023-12-14T19:55:45.113Z,101892.59
2023-12-14T19:58:15.029Z,101869.19
2023-12-14T20:00:47.582Z,101819.44
2023-12-14T20:03:18.476Z,101846.06
2023-12-14T20:05:48.655Z,101920.22
2023-12-14T20:08:20.729Z,101916.31
2023-12-14T20:10:50.797Z,101898.81
2023-12-14T20:13:21.889Z,101876.56
2023-12-14T20:15:54.462Z,101857.69
2023-12-14T20:18:24.423Z,101935.44
2023-12-14T20:20:54.380Z,101945.31
2023-12-14T20:23:24.611Z,101914.47
2023-12-14T20:25:55.315Z,101876.56
2023-12-14T20:28:25.264Z,101930.53
2023-12-14T20:30:58.062Z,101932.81
2023-12-14T20:33:28.093Z,101836.72
2023-12-14T20:35:58.036Z,101680.75
2023-12-14T20:38:27.931Z,101817.28
2023-12-14T20:40:57.869Z,101881.00
2023-12-14T20:43:27.826Z,101898.81
2023-12-14T20:46:00.860Z,101767.25
2023-12-14T20:48:31.257Z,101818.69
2023-12-14T20:51:01.188Z,101811.19
2023-12-14T20:53:32.107Z,101942.78
2023-12-14T20:56:02.109Z,101925.38
2023-12-14T20:58:32.090Z,101923.81
2023-12-14T21:01:04.623Z,101962.72
2023-12-14T21:03:36.636Z,101908.66
2023-12-14T21:06:06.890Z,101832.13
2023-12-14T21:08:36.935Z,101825.03
2023-12-14T21:11:07.136Z,101827.97
2023-12-14T21:13:37.575Z,101956.75
2023-12-14T21:16:11.100Z,101981.75
2023-12-14T21:18:41.257Z,101850.22
2023-12-14T21:21:13.110Z,101896.38
2023-12-14T21:23:43.836Z,101973.88
2023-12-14T21:26:17.532Z,101950.44
2023-12-14T21:28:45.000Z,101840.09
2023-12-14T21:31:17.490Z,101872.81
2023-12-14T21:33:47.709Z,101921.13
2023-12-14T21:36:17.673Z,101989.06
2023-12-14T21:38:47.681Z,101866.63
2023-12-14T21:41:34.366Z,101603.56
2023-12-14T21:44:06.037Z,101679.94
2023-12-14T21:46:45.097Z,102011.97
2023-12-14T21:49:19.263Z,101950.66
2023-12-14T21:51:49.552Z,101963.31
2023-12-14T21:54:19.668Z,102027.09
2023-12-14T21:56:49.612Z,101981.50
2023-12-14T21:59:19.448Z,101981.50
2023-12-14T22:01:51.912Z,102003.53
2023-12-14T22:04:21.748Z,101999.84
2023-12-14T22:06:52.853Z,101989.19
2023-12-14T22:09:22.814Z,101960.94
2023-12-14T22:11:52.944Z,101956.97
2023-12-14T22:14:22.908Z,101912.72
2023-12-14T22:16:55.762Z,101851.81
2023-12-14T22:19:27.854Z,101988.31
2023-12-14T22:21:57.719Z,101941.84
2023-12-14T22:24:27.608Z,102041.16
2023-12-14T22:26:57.407Z,102018.69
2023-12-14T22:29:27.282Z,102010.50
2023-12-14T22:31:59.906Z,101954.56
2023-12-14T22:34:29.741Z,102039.22
2023-12-14T22:36:59.558Z,102038.25
2023-12-14T22:39:29.384Z,101946.78
2023-12-14T22:41:59.192Z,101980.72
2023-12-14T22:44:29.108Z,102021.41
2023-12-14T22:47:01.664Z,102011.56
2023-12-14T22:49:31.669Z,102055.28
2023-12-14T22:52:01.506Z,102075.81
2023-12-14T22:54:31.300Z,102079.44
2023-12-14T22:57:01.140Z,102054.31
2023-12-14T22:59:30.994Z,102059.66
2023-12-14T23:02:03.784Z,102068.59
2023-12-14T23:04:35.324Z,102078.25
2023-12-14T23:07:05.389Z,102073.19
2023-12-14T23:09:35.260Z,102090.97
2023-12-14T23:12:05.182Z,102029.78
2023-12-14T23:14:35.037Z,102093.44
2023-12-14T23:17:07.461Z,102071.63
2023-12-14T23:19:37.292Z,102072.81
2023-12-14T23:22:07.232Z,102110.56
2023-12-14T23:24:37.017Z,102082.91
2023-12-14T23:27:07.395Z,102125.66
2023-12-14T23:29:37.215Z,102098.47
2023-12-14T23:32:10.132Z,102117.75
2023-12-14T23:34:37.541Z,102068.25
2023-12-14T23:37:07.745Z,102108.78
2023-12-14T23:39:37.620Z,102013.75
2023-12-14T23:42:08.027Z,102069.25
2023-12-14T23:44:37.891Z,102121.88
2023-12-14T23:47:10.584Z,102130.63
2023-12-14T23:49:40.374Z,102103.25
2023-12-14T23:52:10.146Z,102121.38
2023-12-14T23:54:39.968Z,102114.84
2023-12-14T23:57:09.764Z,102121.50
2023-12-14T23:59:39.584Z,102057.09
